createdAt,value
2023-01-27T00:01:01.803Z,-2.36
2023-01-27T00:03:30.556Z,-2.34
2023-01-27T00:06:01.057Z,-2.35
2023-01-27T00:08:29.190Z,-2.36
2023-01-27T00:11:12.999Z,-2.35
2023-01-27T00:13:40.595Z,-2.48
2023-01-27T00:16:09.784Z,-2.55
2023-01-27T00:18:37.555Z,-2.34
2023-01-27T00:21:23.188Z,-2.88
2023-01-27T00:24:08.370Z,-2.41
2023-01-27T00:26:36.044Z,-2.47
2023-01-27T00:29:03.753Z,-2.61
2023-01-27T00:31:51.557Z,-2.45
2023-01-27T00:34:19.254Z,-2.44
2023-01-27T00:36:46.982Z,-2.49
2023-01-27T00:39:14.769Z,-2.82
2023-01-27T00:41:44.491Z,-2.54
2023-01-27T00:44:13.353Z,-2.50
2023-01-27T00:46:43.544Z,-2.57
2023-01-27T00:49:13.302Z,-2.52
2023-01-27T00:51:41.008Z,-2.49
2023-01-27T00:54:09.025Z,-2.46
2023-01-27T00:56:37.011Z,-2.48
2023-01-27T00:59:05.159Z,-2.48
2023-01-27T01:01:33.918Z,-2.59
2023-01-27T01:04:03.305Z,-2.33
2023-01-27T01:06:31.928Z,-2.33
2023-01-27T01:08:59.760Z,-2.27
2023-01-27T01:11:27.986Z,-2.23
2023-01-27T01:13:56.540Z,-2.24
2023-01-27T01:16:25.902Z,-2.44
2023-01-27T01:18:54.102Z,-2.43
2023-01-27T01:21:23.381Z,-2.41
2023-01-27T01:23:51.106Z,-2.39
2023-01-27T01:26:19.377Z,-2.40
2023-01-27T01:28:47.479Z,-2.43
2023-01-27T01:31:16.819Z,-2.47
2023-01-27T01:33:44.555Z,-2.46
2023-01-27T01:36:17.647Z,-2.49
2023-01-27T01:38:47.361Z,-2.42
2023-01-27T01:41:16.918Z,-2.61
2023-01-27T01:43:44.848Z,-3.13
2023-01-27T01:46:14.259Z,-2.61
2023-01-27T01:48:43.881Z,-2.49
2023-01-27T01:51:16.140Z,-2.55
2023-01-27T01:53:52.072Z,-3.45
2023-01-27T01:56:24.174Z,-2.78
2023-01-27T01:58:54.539Z,-2.85
2023-01-27T02:01:22.716Z,-2.71
2023-01-27T02:03:57.254Z,-2.49
2023-01-27T02:06:24.977Z,-3.29
2023-01-27T02:08:55.613Z,-3.27
2023-01-27T02:11:23.533Z,-2.52
2023-01-27T02:13:51.166Z,-2.41
2023-01-27T02:16:19.898Z,-2.46
2023-01-27T02:18:47.673Z,-3.06
2023-01-27T02:21:15.389Z,-3.27
2023-01-27T02:23:50.511Z,-2.61
2023-01-27T02:26:24.420Z,-2.50
2023-01-27T02:28:57.919Z,-3.35
2023-01-27T02:31:25.923Z,-3.68
2023-01-27T02:33:58.657Z,-3.37
2023-01-27T02:36:29.910Z,-3.07
2023-01-27T02:39:00.611Z,-2.84
2023-01-27T02:41:34.924Z,-3.64
2023-01-27T02:44:07.586Z,-3.83
2023-01-27T02:46:35.353Z,-3.71
2023-01-27T02:49:03.772Z,-2.76
2023-01-27T02:51:32.052Z,-3.15
2023-01-27T02:54:00.777Z,-3.87
2023-01-27T02:56:29.915Z,-3.52
2023-01-27T02:59:00.541Z,-2.68
2023-01-27T03:01:34.418Z,-2.73
2023-01-27T03:04:02.379Z,-3.02
2023-01-27T03:06:32.126Z,-3.08
2023-01-27T03:08:59.962Z,-2.70
2023-01-27T03:11:47.316Z,-2.69
2023-01-27T03:14:15.668Z,-2.89
2023-01-27T03:17:01.222Z,-3.14
2023-01-27T03:19:28.912Z,-3.06
2023-01-27T03:21:56.833Z,-3.68
2023-01-27T03:24:26.700Z,-2.87
2023-01-27T03:26:59.191Z,-3.65
2023-01-27T03:29:56.911Z,-3.25
2023-01-27T03:32:26.299Z,-2.76
2023-01-27T03:35:15.282Z,-2.95
2023-01-27T03:38:02.980Z,-2.81
2023-01-27T03:40:50.170Z,-3.11
2023-01-27T03:43:36.568Z,-2.80
2023-01-27T03:46:18.855Z,-3.64
2023-01-27T03:48:50.613Z,-2.85
2023-01-27T03:51:20.333Z,-3.16
2023-01-27T03:53:48.489Z,-3.35
2023-01-27T03:56:41.569Z,-2.75
2023-01-27T03:59:10.541Z,-2.75
2023-01-27T04:01:38.230Z,-2.83
2023-01-27T04:04:27.986Z,-3.01
2023-01-27T04:06:58.118Z,-2.75
2023-01-27T04:09:27.305Z,-2.88
2023-01-27T04:11:58.884Z,-3.00
2023-01-27T04:14:30.462Z,-2.98
2023-01-27T04:17:00.521Z,-3.49
2023-01-27T04:19:28.527Z,-3.08
2023-01-27T04:21:57.354Z,-4.02
2023-01-27T04:24:25.450Z,-3.55
2023-01-27T04:26:59.367Z,-2.85
2023-01-27T04:29:30.351Z,-2.77
2023-01-27T04:31:58.810Z,-2.78
2023-01-27T04:34:27.648Z,-2.87
2023-01-27T04:36:55.540Z,-3.10
2023-01-27T04:39:23.696Z,-3.61
2023-01-27T04:41:51.663Z,-3.19
2023-01-27T04:44:21.084Z,-2.88
2023-01-27T04:46:50.439Z,-2.84
2023-01-27T04:49:18.755Z,-3.01
2023-01-27T04:51:47.508Z,-3.85
2023-01-27T04:54:17.093Z,-2.89
2023-01-27T04:56:56.128Z,-3.73
2023-01-27T04:59:23.919Z,-2.91
2023-01-27T05:01:59.218Z,-2.91
2023-01-27T05:04:27.344Z,-3.77
2023-01-27T05:06:55.277Z,-4.07
2023-01-27T05:09:23.121Z,-2.99
2023-01-27T05:11:50.836Z,-3.64
2023-01-27T05:14:18.554Z,-3.47
2023-01-27T05:16:46.420Z,-3.16
2023-01-27T05:19:17.463Z,-3.14
2023-01-27T05:21:45.099Z,-3.93
2023-01-27T05:24:13.080Z,-3.65
2023-01-27T05:26:50.853Z,-2.86
2023-01-27T05:29:18.492Z,-3.65
2023-01-27T05:31:46.390Z,-2.89
2023-01-27T05:34:21.321Z,-2.88
2023-01-27T05:36:53.110Z,-3.08
2023-01-27T05:39:20.707Z,-3.19
2023-01-27T05:41:48.368Z,-2.94
2023-01-27T05:44:16.163Z,-2.99
2023-01-27T05:47:21.840Z,-2.95
2023-01-27T05:49:50.811Z,-2.95
2023-01-27T05:52:18.418Z,-3.15
2023-01-27T05:54:46.090Z,-2.89
2023-01-27T05:57:13.876Z,-3.16
2023-01-27T05:59:41.548Z,-3.45
2023-01-27T06:02:09.382Z,-3.06
2023-01-27T06:04:37.168Z,-3.17
2023-01-27T06:07:06.205Z,-3.56
2023-01-27T06:09:33.924Z,-3.33
2023-01-27T06:12:01.639Z,-3.06
2023-01-27T06:14:29.340Z,-3.57
2023-01-27T06:16:57.013Z,-3.77
2023-01-27T06:19:24.764Z,-2.90
2023-01-27T06:21:52.475Z,-2.93
2023-01-27T06:24:21.774Z,-4.16
2023-01-27T06:26:50.124Z,-3.33
2023-01-27T06:29:17.749Z,-3.47
2023-01-27T06:31:45.526Z,-3.04
2023-01-27T06:34:13.456Z,-3.26
2023-01-27T06:36:46.127Z,-2.75
2023-01-27T06:39:13.954Z,-2.78
2023-01-27T06:41:42.990Z,-3.71
2023-01-27T06:44:10.643Z,-3.19
2023-01-27T06:46:38.466Z,-3.22
2023-01-27T06:49:08.117Z,-4.24
2023-01-27T06:51:35.824Z,-3.60
2023-01-27T06:54:03.544Z,-2.86
2023-01-27T06:56:31.383Z,-3.89
2023-01-27T06:59:00.425Z,-3.31
2023-01-27T07:01:28.338Z,-2.95
2023-01-27T07:03:56.043Z,-2.84
2023-01-27T07:06:23.958Z,-3.85
2023-01-27T07:08:53.086Z,-3.81
2023-01-27T07:11:22.916Z,-3.56
2023-01-27T07:13:50.628Z,-3.99
2023-01-27T07:16:19.691Z,-3.46
2023-01-27T07:18:47.377Z,-3.33
2023-01-27T07:21:15.141Z,-2.93
2023-01-27T07:23:42.917Z,-3.10
2023-01-27T07:26:24.258Z,-2.80
2023-01-27T07:28:52.388Z,-2.75
2023-01-27T07:31:21.471Z,-2.89
2023-01-27T07:33:49.492Z,-2.75
2023-01-27T07:36:17.168Z,-2.66
2023-01-27T07:38:44.775Z,-2.70
2023-01-27T07:41:12.513Z,-2.73
2023-01-27T07:43:40.095Z,-2.72
2023-01-27T07:46:09.167Z,-2.60
2023-01-27T07:48:38.200Z,-2.59
2023-01-27T07:51:05.793Z,-2.47
2023-01-27T07:53:33.419Z,-2.43
2023-01-27T07:56:01.295Z,-2.56
2023-01-27T07:58:29.040Z,-2.64
2023-01-27T08:00:56.634Z,-2.60
2023-01-27T08:03:27.315Z,-2.55
2023-01-27T08:05:56.262Z,-2.63
2023-01-27T08:08:23.871Z,-2.51
2023-01-27T08:10:51.479Z,-2.60
2023-01-27T08:13:19.494Z,-2.48
2023-01-27T08:15:47.120Z,-2.43
2023-01-27T08:18:14.752Z,-2.39
2023-01-27T08:20:43.535Z,-2.53
2023-01-27T08:23:13.429Z,-2.50
2023-01-27T08:25:41.034Z,-2.48
2023-01-27T08:28:08.641Z,-2.60
2023-01-27T08:30:36.250Z,-2.66
2023-01-27T08:33:03.875Z,-2.55
2023-01-27T08:35:31.500Z,-2.63
2023-01-27T08:37:59.160Z,-2.35
2023-01-27T08:40:28.132Z,-2.45
2023-01-27T08:42:55.754Z,-2.53
2023-01-27T08:45:23.389Z,-2.50
2023-01-27T08:47:51.213Z,-2.47
2023-01-27T08:50:19.022Z,-2.51
2023-01-27T08:52:46.634Z,-2.53
2023-01-27T08:55:15.387Z,-2.50
2023-01-27T08:57:44.480Z,-2.45
2023-01-27T09:00:14.140Z,-2.52
2023-01-27T09:02:42.018Z,-2.50
2023-01-27T09:05:09.661Z,-2.42
2023-01-27T09:07:37.572Z,-2.50
2023-01-27T09:10:14.406Z,-2.39
2023-01-27T09:12:45.345Z,-2.90
2023-01-27T09:15:13.912Z,-2.58
2023-01-27T09:17:41.867Z,-2.47
2023-01-27T09:20:10.810Z,-2.49
2023-01-27T09:22:40.179Z,-2.43
2023-01-27T09:25:09.133Z,-2.35
2023-01-27T09:27:39.543Z,-2.35
2023-01-27T09:30:11.209Z,-2.30
2023-01-27T09:32:39.310Z,-2.34
2023-01-27T09:35:07.825Z,-2.48
2023-01-27T09:37:39.888Z,-2.33
2023-01-27T09:40:15.242Z,-2.26
2023-01-27T09:42:58.353Z,-2.33
2023-01-27T09:45:39.122Z,-2.27
2023-01-27T09:48:37.958Z,-2.32
2023-01-27T09:51:12.670Z,-2.33
2023-01-27T09:54:21.853Z,-2.32
2023-01-27T09:56:58.855Z,-2.28
2023-01-27T09:59:42.192Z,-2.30
2023-01-27T10:02:23.416Z,-2.24
2023-01-27T10:05:10.469Z,-2.18
2023-01-27T10:07:55.457Z,-2.23
2023-01-27T10:10:39.384Z,-2.23
2023-01-27T10:13:19.025Z,-2.28
2023-01-27T10:16:03.228Z,-2.20
2023-01-27T10:18:52.168Z,-2.03
2023-01-27T10:21:28.075Z,-2.08
2023-01-27T10:24:07.555Z,-2.07
2023-01-27T10:26:40.247Z,-2.08
2023-01-27T10:29:10.800Z,-2.08
2023-01-27T10:31:45.801Z,-2.11
2023-01-27T10:34:23.470Z,-2.15
2023-01-27T10:37:03.407Z,-2.04
2023-01-27T10:39:43.961Z,-2.23
2023-01-27T10:42:22.916Z,-1.98
2023-01-27T10:45:04.678Z,-2.00
2023-01-27T10:47:43.945Z,-1.77
2023-01-27T10:50:18.127Z,-1.91
2023-01-27T10:52:49.631Z,-2.07
2023-01-27T10:55:24.472Z,-2.10
2023-01-27T10:57:56.118Z,-2.04
2023-01-27T11:01:01.668Z,-2.37
2023-01-27T11:03:26.357Z,-2.00
2023-01-27T11:05:58.937Z,-2.12
2023-01-27T11:08:30.525Z,-1.98
2023-01-27T11:11:20.811Z,-2.11
2023-01-27T11:13:49.014Z,-1.95
2023-01-27T11:16:19.412Z,-1.94
2023-01-27T11:18:56.570Z,-1.93
2023-01-27T11:21:28.990Z,-1.88
2023-01-27T11:23:59.285Z,-1.89
2023-01-27T11:26:34.796Z,-1.80
2023-01-27T11:29:19.034Z,-1.73
2023-01-27T11:31:54.728Z,-1.67
2023-01-27T11:34:28.923Z,-1.67
2023-01-27T11:36:57.933Z,-1.66
2023-01-27T11:39:27.811Z,-1.72
2023-01-27T11:41:56.621Z,-1.79
2023-01-27T11:44:29.186Z,-1.78
2023-01-27T11:46:57.113Z,-1.60
2023-01-27T11:49:28.699Z,-1.66
2023-01-27T11:52:05.557Z,-1.75
2023-01-27T11:54:38.624Z,-1.60
2023-01-27T11:57:06.210Z,-1.74
2023-01-27T11:59:39.073Z,-1.75
2023-01-27T12:02:23.565Z,-1.73
2023-01-27T12:04:56.611Z,-1.57
2023-01-27T12:07:36.035Z,-1.53
2023-01-27T12:10:04.369Z,-1.60
2023-01-27T12:12:31.984Z,-1.65
2023-01-27T12:15:03.111Z,-1.58
2023-01-27T12:17:35.805Z,-1.57
2023-01-27T12:20:07.517Z,-1.54
2023-01-27T12:22:39.812Z,-1.57
2023-01-27T12:25:15.426Z,-1.52
2023-01-27T12:27:49.194Z,-1.42
2023-01-27T12:30:22.245Z,-1.53
2023-01-27T12:32:50.631Z,-1.47
2023-01-27T12:35:22.115Z,-1.47
2023-01-27T12:38:03.975Z,-1.43
2023-01-27T12:40:33.579Z,-1.37
2023-01-27T12:43:12.108Z,-1.31
2023-01-27T12:45:41.195Z,-1.36
2023-01-27T12:48:19.052Z,-1.30
2023-01-27T12:50:55.740Z,-1.37
2023-01-27T12:53:27.687Z,-1.40
2023-01-27T12:55:59.938Z,-1.40
2023-01-27T12:58:37.177Z,-1.40
2023-01-27T13:01:08.240Z,-1.32
2023-01-27T13:03:42.755Z,-1.37
2023-01-27T13:06:15.828Z,-1.37
2023-01-27T13:08:45.736Z,-1.43
2023-01-27T13:11:13.898Z,-1.25
2023-01-27T13:13:50.516Z,-1.24
2023-01-27T13:16:24.091Z,-1.23
2023-01-27T13:18:55.079Z,-1.27
2023-01-27T13:21:26.508Z,-1.26
2023-01-27T13:23:56.825Z,-1.35
2023-01-27T13:26:29.601Z,-1.34
2023-01-27T13:29:01.137Z,-1.46
2023-01-27T13:31:41.717Z,-1.34
2023-01-27T13:34:18.609Z,-2.04
2023-01-27T13:36:53.479Z,-1.32
2023-01-27T13:39:29.699Z,-2.35
2023-01-27T13:42:13.556Z,-2.35
2023-01-27T13:44:46.071Z,-1.49
2023-01-27T13:47:17.595Z,-1.46
2023-01-27T13:49:48.920Z,-1.44
2023-01-27T13:52:16.956Z,-2.17
2023-01-27T13:54:46.186Z,-2.29
2023-01-27T13:57:30.172Z,-1.51
2023-01-27T14:00:08.530Z,-1.59
2023-01-27T14:03:27.734Z,-1.55
2023-01-27T14:06:13.256Z,-1.60
2023-01-27T14:09:02.288Z,-1.64
2023-01-27T14:11:38.437Z,-1.57
2023-01-27T14:14:17.223Z,-2.03
2023-01-27T14:17:00.214Z,-1.53
2023-01-27T14:19:41.157Z,-1.51
2023-01-27T14:22:21.719Z,-1.89
2023-01-27T14:24:56.081Z,-2.84
2023-01-27T14:27:33.403Z,-1.58
2023-01-27T14:30:09.609Z,-1.59
2023-01-27T14:32:43.106Z,-1.56
2023-01-27T14:35:22.603Z,-2.58
2023-01-27T14:37:57.141Z,-1.52
2023-01-27T14:40:30.144Z,-2.38
2023-01-27T14:43:21.506Z,-2.14
2023-01-27T14:45:54.605Z,-1.98
2023-01-27T14:48:41.751Z,-1.72
2023-01-27T14:51:24.894Z,-1.70
2023-01-27T14:54:17.585Z,-1.62
2023-01-27T14:56:51.081Z,-2.19
2023-01-27T14:59:34.219Z,-1.88
2023-01-27T15:02:08.748Z,-1.54
2023-01-27T15:04:42.049Z,-1.62
2023-01-27T15:07:17.750Z,-2.16
2023-01-27T15:10:22.998Z,-1.68
2023-01-27T15:13:19.713Z,-1.93
2023-01-27T15:16:19.299Z,-2.13
2023-01-27T15:19:14.918Z,-1.64
2023-01-27T15:22:12.366Z,-1.65
2023-01-27T15:24:58.578Z,-1.68
2023-01-27T15:27:27.812Z,-1.82
2023-01-27T15:29:55.956Z,-1.73
2023-01-27T15:32:37.006Z,-1.89
2023-01-27T15:35:36.674Z,-1.75
2023-01-27T15:38:20.514Z,-1.74
2023-01-27T15:41:01.668Z,-1.85
2023-01-27T15:43:31.465Z,-1.86
2023-01-27T15:46:20.406Z,-2.38
2023-01-27T15:48:49.627Z,-1.78
2023-01-27T15:51:20.471Z,-1.85
2023-01-27T15:53:52.464Z,-1.96
2023-01-27T15:56:20.281Z,-1.82
2023-01-27T15:58:56.263Z,-2.41
2023-01-27T16:01:27.539Z,-1.76
2023-01-27T16:04:12.492Z,-2.36
2023-01-27T16:06:47.669Z,-2.31
2023-01-27T16:09:29.238Z,-2.62
2023-01-27T16:12:02.581Z,-1.73
2023-01-27T16:14:40.428Z,-1.78
2023-01-27T16:17:27.967Z,-2.02
2023-01-27T16:20:15.508Z,-2.18
2023-01-27T16:22:45.819Z,-1.73
2023-01-27T16:25:25.509Z,-1.87
2023-01-27T16:28:00.350Z,-1.91
2023-01-27T16:30:32.260Z,-1.95
2023-01-27T16:33:06.166Z,-1.93
2023-01-27T16:35:43.810Z,-1.86
2023-01-27T16:38:22.012Z,-1.98
2023-01-27T16:40:54.976Z,-1.99
2023-01-27T16:43:26.594Z,-1.93
2023-01-27T16:45:56.179Z,-1.99
2023-01-27T16:48:29.576Z,-2.16
2023-01-27T16:51:13.280Z,-2.13
2023-01-27T16:53:46.360Z,-2.20
2023-01-27T16:56:21.708Z,-2.05
2023-01-27T16:58:51.266Z,-2.83
2023-01-27T17:01:23.637Z,-1.90
2023-01-27T17:03:54.046Z,-1.91
2023-01-27T17:06:27.118Z,-2.00
2023-01-27T17:08:54.859Z,-2.94
2023-01-27T17:11:26.659Z,-2.02
2023-01-27T17:14:00.003Z,-2.00
2023-01-27T17:16:30.822Z,-2.31
2023-01-27T17:19:04.411Z,-2.60
2023-01-27T17:21:39.140Z,-2.00
2023-01-27T17:24:15.138Z,-2.39
2023-01-27T17:26:44.954Z,-2.53
2023-01-27T17:29:17.184Z,-2.06
2023-01-27T17:31:45.276Z,-1.95
2023-01-27T17:34:18.633Z,-2.00
2023-01-27T17:37:17.136Z,-1.89
2023-01-27T17:39:45.556Z,-1.85
2023-01-27T17:42:18.511Z,-2.02
2023-01-27T17:44:46.849Z,-2.02
2023-01-27T17:47:16.019Z,-2.84
2023-01-27T17:49:45.134Z,-2.55
2023-01-27T17:52:20.913Z,-1.97
2023-01-27T17:54:49.903Z,-2.28
2023-01-27T17:57:22.382Z,-2.80
2023-01-27T17:59:58.877Z,-2.58
2023-01-27T18:02:30.164Z,-1.93
2023-01-27T18:05:02.719Z,-2.19
2023-01-27T18:07:31.950Z,-2.19
2023-01-27T18:10:00.082Z,-2.19
2023-01-27T18:12:34.264Z,-2.33
2023-01-27T18:15:35.298Z,-1.91
2023-01-27T18:18:24.745Z,-1.85
2023-01-27T18:21:07.249Z,-1.82
2023-01-27T18:23:37.974Z,-1.83
2023-01-27T18:26:08.811Z,-1.85
2023-01-27T18:28:39.115Z,-2.07
2023-01-27T18:31:15.970Z,-1.81
2023-01-27T18:33:44.958Z,-2.02
2023-01-27T18:36:21.991Z,-1.96
2023-01-27T18:38:51.259Z,-2.50
2023-01-27T18:41:24.424Z,-1.99
2023-01-27T18:43:52.077Z,-1.82
2023-01-27T18:46:19.909Z,-3.10
2023-01-27T18:48:48.460Z,-2.50
2023-01-27T18:51:17.312Z,-2.70
2023-01-27T18:53:45.563Z,-2.80
2023-01-27T18:56:14.589Z,-2.35
2023-01-27T18:58:42.236Z,-2.18
2023-01-27T19:01:17.180Z,-2.19
2023-01-27T19:03:47.763Z,-2.52
2023-01-27T19:06:16.848Z,-1.91
2023-01-27T19:08:44.928Z,-2.14
2023-01-27T19:11:17.499Z,-1.89
2023-01-27T19:13:48.182Z,-2.06
2023-01-27T19:16:18.424Z,-1.87
2023-01-27T19:18:46.306Z,-2.01
2023-01-27T19:21:15.782Z,-1.92
2023-01-27T19:23:44.735Z,-1.93
2023-01-27T19:26:18.479Z,-1.91
2023-01-27T19:28:47.380Z,-1.98
2023-01-27T19:31:15.275Z,-1.95
2023-01-27T19:33:44.711Z,-1.91
2023-01-27T19:36:20.788Z,-2.07
2023-01-27T19:38:58.535Z,-1.99
2023-01-27T19:41:27.550Z,-2.04
2023-01-27T19:43:55.220Z,-2.03
2023-01-27T19:46:23.615Z,-2.09
2023-01-27T19:48:51.890Z,-2.33
2023-01-27T19:51:20.149Z,-2.75
2023-01-27T19:53:47.958Z,-2.45
2023-01-27T19:56:17.927Z,-2.24
2023-01-27T19:58:49.921Z,-2.06
2023-01-27T20:01:18.409Z,-2.09
2023-01-27T20:03:46.056Z,-2.19
2023-01-27T20:06:17.673Z,-2.07
2023-01-27T20:08:45.433Z,-1.97
2023-01-27T20:11:30.710Z,-2.03
2023-01-27T20:14:00.453Z,-2.08
2023-01-27T20:16:29.225Z,-2.12
2023-01-27T20:19:09.454Z,-2.05
2023-01-27T20:21:37.074Z,-2.20
2023-01-27T20:24:05.226Z,-2.10
2023-01-27T20:26:33.018Z,-2.08
2023-01-27T20:29:01.957Z,-2.21
2023-01-27T20:31:29.689Z,-2.20
2023-01-27T20:33:57.414Z,-2.23
2023-01-27T20:36:25.974Z,-2.23
2023-01-27T20:38:53.598Z,-2.13
2023-01-27T20:41:24.878Z,-2.32
2023-01-27T20:43:56.190Z,-2.14
2023-01-27T20:46:25.458Z,-2.07
2023-01-27T20:48:53.201Z,-2.20
2023-01-27T20:51:21.022Z,-2.30
2023-01-27T20:53:49.282Z,-2.17
2023-01-27T20:56:22.845Z,-2.07
2023-01-27T20:58:51.580Z,-2.12
2023-01-27T21:01:21.289Z,-2.07
2023-01-27T21:03:50.352Z,-2.08
2023-01-27T21:06:19.795Z,-2.17
2023-01-27T21:08:49.075Z,-2.47
2023-01-27T21:11:18.407Z,-2.36
2023-01-27T21:13:46.464Z,-2.31
2023-01-27T21:16:14.589Z,-2.16
2023-01-27T21:18:44.000Z,-2.30
2023-01-27T21:21:22.789Z,-2.24
2023-01-27T21:23:50.557Z,-2.21
2023-01-27T21:26:18.299Z,-2.27
2023-01-27T21:28:46.084Z,-2.29
2023-01-27T21:31:16.761Z,-2.26
2023-01-27T21:33:46.860Z,-2.23
2023-01-27T21:36:14.901Z,-2.17
2023-01-27T21:38:53.720Z,-2.27
2023-01-27T21:41:40.024Z,-2.37
2023-01-27T21:44:33.720Z,-2.23
2023-01-27T21:47:01.339Z,-2.37
2023-01-27T21:50:02.857Z,-2.33
2023-01-27T21:52:33.884Z,-2.30
2023-01-27T21:55:02.424Z,-2.29
2023-01-27T21:57:30.142Z,-2.29
2023-01-27T21:59:58.095Z,-2.24
2023-01-27T22:04:46.248Z,-2.22
2023-01-27T22:07:17.086Z,-2.31
2023-01-27T22:09:46.700Z,-2.28
2023-01-27T22:12:18.134Z,-2.43
2023-01-27T22:14:47.809Z,-2.28
2023-01-27T22:17:19.850Z,-2.15
2023-01-27T22:19:52.180Z,-2.18
2023-01-27T22:22:21.724Z,-2.63
2023-01-27T22:24:51.273Z,-2.25
2023-01-27T22:27:20.809Z,-2.38
2023-01-27T22:29:57.487Z,-2.58
2023-01-27T22:32:27.188Z,-2.41
2023-01-27T22:34:59.335Z,-2.24
2023-01-27T22:37:28.899Z,-2.24
2023-01-27T22:39:58.544Z,-2.29
2023-01-27T22:42:28.135Z,-2.30
2023-01-27T22:44:57.847Z,-2.36
2023-01-27T22:47:27.427Z,-2.34
2023-01-27T22:49:59.527Z,-2.32
2023-01-27T22:52:29.110Z,-2.37
2023-01-27T22:54:58.669Z,-2.34
2023-01-27T22:57:30.398Z,-2.37
2023-01-27T23:00:00.347Z,-2.46
2023-01-27T23:02:31.016Z,-2.38
2023-01-27T23:05:03.190Z,-2.50
2023-01-27T23:07:32.901Z,-2.34
2023-01-27T23:10:02.512Z,-2.32
2023-01-27T23:12:32.023Z,-2.41
2023-01-27T23:15:02.243Z,-2.47
2023-01-27T23:17:31.836Z,-2.43
2023-01-27T23:20:04.067Z,-2.50
2023-01-27T23:22:33.591Z,-2.43
2023-01-27T23:25:03.122Z,-2.42
2023-01-27T23:27:32.708Z,-2.30
2023-01-27T23:30:02.283Z,-2.39
2023-01-27T23:32:31.875Z,-2.34
2023-01-27T23:35:04.000Z,-2.50
2023-01-27T23:37:33.801Z,-2.49
2023-01-27T23:40:03.381Z,-2.53
2023-01-27T23:42:33.003Z,-2.46
2023-01-27T23:45:02.634Z,-2.47
2023-01-27T23:47:32.443Z,-2.43
2023-01-27T23:50:05.414Z,-2.41
2023-01-27T23:52:36.486Z,-2.42
2023-01-27T23:55:06.462Z,-2.59
2023-01-27T23:57:35.994Z,-2.39
